createdAt,value
2022-09-17T00:01:46.635Z,100.00
2022-09-17T00:04:15.581Z,100.00
2022-09-17T00:06:44.641Z,100.00
2022-09-17T00:09:13.460Z,100.00
2022-09-17T00:11:44.683Z,100.00
2022-09-17T00:14:18.650Z,100.00
2022-09-17T00:16:50.350Z,100.00
2022-09-17T00:19:22.283Z,100.00
2022-09-17T00:21:52.408Z,100.00
2022-09-17T00:24:22.451Z,100.00
2022-09-17T00:26:51.731Z,100.00
2022-09-17T00:29:21.015Z,100.00
2022-09-17T00:31:50.233Z,100.00
2022-09-17T00:34:20.210Z,100.00
2022-09-17T00:36:49.262Z,100.00
2022-09-17T00:39:18.451Z,100.00
2022-09-17T00:41:47.579Z,100.00
2022-09-17T00:44:38.192Z,100.00
2022-09-17T00:47:15.031Z,100.00
2022-09-17T00:49:44.939Z,100.00
2022-09-17T00:52:21.691Z,100.00
2022-09-17T00:55:17.101Z,100.00
2022-09-17T00:57:46.949Z,100.00
2022-09-17T01:00:17.946Z,100.00
2022-09-17T01:02:47.259Z,100.00
2022-09-17T01:05:17.472Z,100.00
2022-09-17T01:08:04.701Z,100.00
2022-09-17T01:10:56.591Z,100.00
2022-09-17T01:13:46.542Z,100.00
2022-09-17T01:16:24.664Z,100.00
2022-09-17T01:19:10.034Z,100.00
2022-09-17T01:21:55.600Z,100.00
2022-09-17T01:24:41.199Z,100.00
2022-09-17T01:27:47.079Z,100.00
2022-09-17T01:30:45.119Z,100.00
2022-09-17T01:33:17.425Z,100.00
2022-09-17T01:36:10.529Z,100.00
2022-09-17T01:38:55.823Z,100.00
2022-09-17T01:41:47.548Z,100.00
2022-09-17T01:44:33.239Z,100.00
2022-09-17T01:47:24.769Z,100.00
2022-09-17T01:49:58.763Z,100.00
2022-09-17T01:52:30.126Z,100.00
2022-09-17T01:55:04.826Z,100.00
2022-09-17T01:58:08.868Z,100.00
2022-09-17T02:00:43.329Z,100.00
2022-09-17T02:03:29.175Z,100.00
2022-09-17T02:06:14.322Z,100.00
2022-09-17T02:08:50.527Z,100.00
2022-09-17T02:11:20.877Z,100.00
2022-09-17T02:13:59.791Z,100.00
2022-09-17T02:16:37.602Z,100.00
2022-09-17T02:19:32.868Z,100.00
2022-09-17T02:22:13.636Z,100.00
2022-09-17T02:25:00.601Z,100.00
2022-09-17T02:27:50.820Z,100.00
2022-09-17T02:30:20.147Z,100.00
2022-09-17T02:32:49.841Z,100.00
2022-09-17T02:35:19.212Z,100.00
2022-09-17T02:37:48.175Z,100.00
2022-09-17T02:40:19.778Z,100.00
2022-09-17T02:43:07.759Z,100.00
2022-09-17T02:46:22.251Z,100.00
2022-09-17T02:49:16.732Z,100.00
2022-09-17T02:52:18.883Z,100.00
2022-09-17T02:54:59.696Z,100.00
2022-09-17T02:57:34.359Z,100.00
2022-09-17T03:00:14.967Z,100.00
2022-09-17T03:02:57.289Z,100.00
2022-09-17T03:05:29.067Z,100.00
2022-09-17T03:08:00.589Z,100.00
2022-09-17T03:10:31.915Z,100.00
2022-09-17T03:13:01.083Z,100.00
2022-09-17T03:15:29.836Z,100.00
2022-09-17T03:17:59.035Z,100.00
2022-09-17T03:20:27.932Z,100.00
2022-09-17T03:22:56.986Z,100.00
2022-09-17T03:25:26.432Z,100.00
2022-09-17T03:27:56.471Z,100.00
2022-09-17T03:30:25.358Z,100.00
2022-09-17T03:32:54.535Z,100.00
2022-09-17T03:35:23.388Z,100.00
2022-09-17T03:37:52.731Z,100.00
2022-09-17T03:40:21.932Z,100.00
2022-09-17T03:42:50.930Z,100.00
2022-09-17T03:45:19.891Z,100.00
2022-09-17T03:47:49.143Z,100.00
2022-09-17T03:50:17.995Z,100.00
2022-09-17T03:52:47.145Z,100.00
2022-09-17T03:55:17.345Z,100.00
2022-09-17T03:57:46.731Z,100.00
2022-09-17T04:00:18.404Z,100.00
2022-09-17T04:02:47.575Z,100.00
2022-09-17T04:05:16.680Z,100.00
2022-09-17T04:07:46.132Z,100.00
2022-09-17T04:10:15.045Z,100.00
2022-09-17T04:12:44.564Z,94.05
2022-09-17T04:15:13.875Z,100.00
2022-09-17T04:17:42.868Z,100.00
2022-09-17T04:20:11.844Z,100.00
2022-09-17T04:22:41.691Z,100.00
2022-09-17T04:25:12.169Z,99.49
2022-09-17T04:27:41.509Z,100.00
2022-09-17T04:30:10.651Z,97.20
2022-09-17T04:32:39.641Z,91.23
2022-09-17T04:35:08.839Z,86.85
2022-09-17T04:37:38.078Z,73.70
2022-09-17T04:40:08.483Z,89.46
2022-09-17T04:42:37.814Z,83.90
2022-09-17T04:45:07.372Z,93.94
2022-09-17T04:47:40.902Z,82.74
2022-09-17T04:50:10.269Z,82.42
2022-09-17T04:52:43.277Z,89.26
2022-09-17T04:55:12.909Z,96.62
2022-09-17T04:57:50.853Z,92.13
2022-09-17T05:00:21.464Z,91.49
2022-09-17T05:02:52.602Z,79.54
2022-09-17T05:05:22.792Z,90.70
2022-09-17T05:07:51.990Z,83.86
2022-09-17T05:10:23.319Z,69.88
2022-09-17T05:12:54.411Z,87.19
2022-09-17T05:15:24.909Z,85.38
2022-09-17T05:17:55.896Z,56.16
2022-09-17T05:20:24.868Z,78.68
2022-09-17T05:22:54.505Z,55.89
2022-09-17T05:25:27.217Z,51.68
2022-09-17T05:27:57.220Z,73.75
2022-09-17T05:30:26.820Z,60.52
2022-09-17T05:33:04.084Z,60.09
2022-09-17T05:35:33.964Z,65.55
2022-09-17T05:38:08.707Z,55.96
2022-09-17T05:40:39.497Z,61.80
2022-09-17T05:43:09.327Z,50.33
2022-09-17T05:45:39.528Z,51.19
2022-09-17T05:48:14.888Z,52.95
2022-09-17T05:50:44.331Z,52.51
2022-09-17T05:53:14.775Z,57.94
2022-09-17T05:55:43.989Z,51.48
2022-09-17T05:58:18.191Z,50.55
2022-09-17T06:00:49.719Z,50.04
2022-09-17T06:03:21.225Z,65.29
2022-09-17T06:06:01.035Z,57.39
2022-09-17T06:08:30.647Z,53.57
2022-09-17T06:11:02.458Z,63.47
2022-09-17T06:13:33.472Z,60.49
2022-09-17T06:18:39.563Z,61.47
2022-09-17T06:21:08.512Z,65.05
2022-09-17T06:23:38.109Z,58.66
2022-09-17T06:26:08.129Z,64.02
2022-09-17T06:28:41.515Z,61.79
2022-09-17T06:31:13.458Z,70.29
2022-09-17T06:33:42.662Z,67.75
2022-09-17T06:36:14.349Z,62.44
2022-09-17T06:38:44.511Z,69.64
2022-09-17T06:41:15.486Z,68.16
2022-09-17T06:43:48.163Z,62.78
2022-09-17T06:46:17.164Z,62.36
2022-09-17T06:48:46.059Z,59.65
2022-09-17T06:51:15.844Z,61.16
2022-09-17T06:53:44.824Z,64.83
2022-09-17T06:56:13.916Z,63.37
2022-09-17T06:58:43.952Z,57.23
2022-09-17T07:01:14.401Z,60.06
2022-09-17T07:03:44.695Z,54.04
2022-09-17T07:06:13.724Z,52.97
2022-09-17T07:08:42.883Z,61.94
2022-09-17T07:11:11.929Z,55.88
2022-09-17T07:13:48.098Z,63.21
2022-09-17T07:16:17.313Z,60.08
2022-09-17T07:18:46.299Z,61.89
2022-09-17T07:21:15.799Z,61.45
2022-09-17T07:23:44.812Z,67.45
2022-09-17T07:26:16.517Z,66.91
2022-09-17T07:28:45.665Z,66.23
2022-09-17T07:31:16.618Z,51.05
2022-09-17T07:33:46.769Z,58.58
2022-09-17T07:39:04.498Z,63.24
2022-09-17T07:41:35.331Z,58.71
2022-09-17T07:44:04.807Z,52.68
2022-09-17T07:46:34.087Z,54.36
2022-09-17T07:49:03.151Z,53.98
2022-09-17T07:51:32.577Z,61.48
2022-09-17T07:54:03.213Z,54.03
2022-09-17T07:56:32.284Z,56.49
2022-09-17T07:59:01.699Z,52.45
2022-09-17T08:01:32.878Z,49.75
2022-09-17T08:04:02.570Z,50.75
2022-09-17T08:06:31.858Z,50.63
2022-09-17T08:09:01.407Z,50.72
2022-09-17T08:11:54.530Z,50.71
2022-09-17T08:14:23.608Z,50.88
2022-09-17T08:16:57.610Z,46.74
2022-09-17T08:19:26.611Z,49.47
2022-09-17T08:21:55.431Z,62.12
2022-09-17T08:24:24.607Z,53.03
2022-09-17T08:26:53.743Z,51.70
2022-09-17T08:29:22.825Z,49.16
2022-09-17T08:31:51.836Z,48.98
2022-09-17T08:34:20.851Z,51.35
2022-09-17T08:36:49.745Z,50.32
2022-09-17T08:39:19.209Z,50.51
2022-09-17T08:41:51.340Z,48.94
2022-09-17T08:44:32.809Z,52.23
2022-09-17T08:47:20.191Z,51.07
2022-09-17T08:50:01.884Z,56.47
2022-09-17T08:52:54.183Z,53.35
2022-09-17T08:55:41.855Z,57.52
2022-09-17T08:58:41.945Z,58.85
2022-09-17T09:01:26.215Z,65.91
2022-09-17T09:04:22.264Z,71.77
2022-09-17T09:06:56.493Z,75.40
2022-09-17T09:09:29.787Z,70.16
2022-09-17T09:12:15.535Z,63.99
2022-09-17T09:15:02.480Z,56.01
2022-09-17T09:17:47.534Z,56.79
2022-09-17T09:20:26.146Z,59.01
2022-09-17T09:22:55.445Z,59.28
2022-09-17T09:25:31.948Z,60.81
2022-09-17T09:28:24.333Z,72.71
2022-09-17T09:31:06.033Z,76.55
2022-09-17T09:33:47.740Z,83.52
2022-09-17T09:36:22.637Z,77.39
2022-09-17T09:39:06.734Z,80.21
2022-09-17T09:41:42.776Z,78.06
2022-09-17T09:44:21.383Z,80.27
2022-09-17T09:46:58.849Z,82.22
2022-09-17T09:49:46.424Z,90.79
2022-09-17T09:52:30.570Z,88.69
2022-09-17T09:56:37.374Z,88.03
2022-09-17T09:59:11.549Z,80.75
2022-09-17T10:01:44.066Z,66.15
2022-09-17T10:04:31.313Z,75.25
2022-09-17T10:07:11.859Z,73.17
2022-09-17T10:09:46.857Z,66.38
2022-09-17T10:12:19.291Z,61.85
2022-09-17T10:14:48.563Z,57.26
2022-09-17T10:17:26.079Z,70.45
2022-09-17T10:20:01.398Z,70.60
2022-09-17T10:22:42.110Z,80.13
2022-09-17T10:25:26.859Z,85.10
2022-09-17T10:27:58.733Z,86.67
2022-09-17T10:30:29.290Z,90.79
2022-09-17T10:33:20.838Z,94.49
2022-09-17T10:35:59.618Z,91.97
2022-09-17T10:38:40.781Z,91.39
2022-09-17T10:41:17.262Z,96.04
2022-09-17T10:43:47.225Z,95.62
2022-09-17T10:46:31.844Z,96.14
2022-09-17T10:49:19.624Z,100.00
2022-09-17T10:51:48.725Z,100.00
2022-09-17T10:54:17.683Z,100.00
2022-09-17T10:56:55.846Z,100.00
2022-09-17T10:59:31.077Z,97.18
2022-09-17T11:02:22.213Z,94.78
2022-09-17T11:05:05.902Z,94.07
2022-09-17T11:07:44.143Z,89.01
2022-09-17T11:10:16.248Z,88.23
2022-09-17T11:13:01.160Z,93.00
2022-09-17T11:16:18.661Z,89.79
2022-09-17T11:19:07.288Z,91.48
2022-09-17T11:21:46.425Z,92.37
2022-09-17T11:24:41.761Z,85.95
2022-09-17T11:27:36.651Z,89.64
2022-09-17T11:30:22.691Z,88.37
2022-09-17T11:33:03.787Z,91.25
2022-09-17T11:35:38.540Z,89.46
2022-09-17T11:38:30.578Z,90.37
2022-09-17T11:41:09.787Z,100.00
2022-09-17T11:43:51.677Z,100.00
2022-09-17T11:46:30.896Z,97.25
2022-09-17T11:49:10.355Z,97.49
2022-09-17T11:51:45.704Z,100.00
2022-09-17T11:54:26.261Z,100.00
2022-09-17T11:57:09.755Z,100.00
2022-09-17T11:59:48.206Z,100.00
2022-09-17T12:02:46.566Z,100.00
2022-09-17T12:05:37.850Z,100.00
2022-09-17T12:08:32.353Z,100.00
2022-09-17T12:11:23.451Z,100.00
2022-09-17T12:14:22.288Z,100.00
2022-09-17T12:16:55.928Z,100.00
2022-09-17T12:19:52.180Z,100.00
2022-09-17T12:22:40.207Z,100.00
2022-09-17T12:25:15.854Z,100.00
2022-09-17T12:27:53.924Z,100.00
2022-09-17T12:30:37.010Z,100.00
2022-09-17T12:33:30.413Z,100.00
2022-09-17T12:36:36.608Z,100.00
2022-09-17T12:39:13.257Z,100.00
2022-09-17T12:41:56.508Z,100.00
2022-09-17T12:44:51.693Z,100.00
2022-09-17T12:47:46.807Z,100.00
2022-09-17T12:50:23.973Z,100.00
2022-09-17T12:53:17.856Z,100.00
2022-09-17T12:56:12.097Z,100.00
2022-09-17T12:59:06.420Z,100.00
2022-09-17T13:01:48.151Z,100.00
2022-09-17T13:05:01.089Z,100.00
2022-09-17T13:07:45.819Z,100.00
2022-09-17T13:10:27.256Z,100.00
2022-09-17T13:12:56.342Z,100.00
2022-09-17T13:15:36.935Z,100.00
2022-09-17T13:18:27.383Z,100.00
2022-09-17T13:21:14.399Z,100.00
2022-09-17T13:23:47.586Z,100.00
2022-09-17T13:26:22.883Z,100.00
2022-09-17T13:28:54.257Z,100.00
2022-09-17T13:31:37.299Z,100.00
2022-09-17T13:34:33.331Z,100.00
2022-09-17T13:37:19.187Z,100.00
2022-09-17T13:39:51.624Z,100.00
2022-09-17T13:42:30.093Z,100.00
2022-09-17T13:45:13.591Z,100.00
2022-09-17T13:47:54.612Z,100.00
2022-09-17T13:50:31.422Z,100.00
2022-09-17T13:53:10.333Z,100.00
2022-09-17T13:55:41.129Z,100.00
2022-09-17T13:58:22.734Z,100.00
2022-09-17T14:00:59.126Z,99.01
2022-09-17T14:03:41.494Z,98.52
2022-09-17T14:06:11.912Z,100.00
2022-09-17T14:08:59.263Z,99.80
2022-09-17T14:11:29.613Z,99.82
2022-09-17T14:14:09.133Z,98.76
2022-09-17T14:16:44.068Z,96.99
2022-09-17T14:19:25.016Z,100.00
2022-09-17T14:21:58.734Z,100.00
2022-09-17T14:24:38.252Z,100.00
2022-09-17T14:27:10.903Z,100.00
2022-09-17T14:30:00.586Z,100.00
2022-09-17T14:32:37.563Z,100.00
2022-09-17T14:35:36.752Z,100.00
2022-09-17T14:38:21.404Z,100.00
2022-09-17T14:41:06.894Z,100.00
2022-09-17T14:43:39.111Z,100.00
2022-09-17T14:46:17.756Z,100.00
2022-09-17T14:48:46.954Z,100.00
2022-09-17T14:51:22.057Z,100.00
2022-09-17T14:54:16.698Z,100.00
2022-09-17T14:56:48.736Z,100.00
2022-09-17T14:59:31.418Z,100.00
2022-09-17T15:02:01.035Z,100.00
2022-09-17T15:04:30.405Z,100.00
2022-09-17T15:07:14.167Z,100.00
2022-09-17T15:09:43.360Z,100.00
2022-09-17T15:12:18.638Z,100.00
2022-09-17T15:14:49.355Z,100.00
2022-09-17T15:17:20.381Z,100.00
2022-09-17T15:19:59.494Z,100.00
2022-09-17T15:22:35.870Z,100.00
2022-09-17T15:25:14.808Z,100.00
2022-09-17T15:27:47.371Z,100.00
2022-09-17T15:30:20.209Z,100.00
2022-09-17T15:32:55.290Z,100.00
2022-09-17T15:35:29.546Z,100.00
2022-09-17T15:38:21.756Z,100.00
2022-09-17T15:40:49.359Z,100.00
2022-09-17T15:43:23.459Z,100.00
2022-09-17T15:45:52.692Z,100.00
2022-09-17T15:48:40.663Z,100.00
2022-09-17T15:51:30.603Z,100.00
2022-09-17T15:54:10.164Z,100.00
2022-09-17T15:56:42.558Z,100.00
2022-09-17T15:59:23.314Z,100.00
2022-09-17T16:01:55.382Z,100.00
2022-09-17T16:04:30.436Z,100.00
2022-09-17T16:07:14.748Z,100.00
2022-09-17T16:09:54.922Z,100.00
2022-09-17T16:12:29.967Z,100.00
2022-09-17T16:15:05.534Z,100.00
2022-09-17T16:17:45.320Z,100.00
2022-09-17T16:20:21.511Z,100.00
2022-09-17T16:22:51.639Z,100.00
2022-09-17T16:25:26.334Z,100.00
2022-09-17T16:28:00.757Z,100.00
2022-09-17T16:30:30.566Z,100.00
2022-09-17T16:32:59.529Z,100.00
2022-09-17T16:35:28.683Z,100.00
2022-09-17T16:37:58.332Z,100.00
2022-09-17T16:40:31.289Z,100.00
2022-09-17T16:43:05.095Z,100.00
2022-09-17T16:45:34.126Z,100.00
2022-09-17T16:48:03.400Z,100.00
2022-09-17T16:50:33.871Z,100.00
2022-09-17T16:53:05.479Z,100.00
2022-09-17T16:55:34.778Z,100.00
2022-09-17T16:58:04.049Z,100.00
2022-09-17T17:00:33.973Z,100.00
2022-09-17T17:03:03.326Z,100.00
2022-09-17T17:05:37.315Z,100.00
2022-09-17T17:08:07.502Z,100.00
2022-09-17T17:10:38.887Z,100.00
2022-09-17T17:13:11.052Z,100.00
2022-09-17T17:15:42.308Z,100.00
2022-09-17T17:18:12.009Z,100.00
2022-09-17T17:20:40.896Z,100.00
2022-09-17T17:23:10.350Z,100.00
2022-09-17T17:25:39.773Z,97.77
2022-09-17T17:28:08.967Z,97.00
2022-09-17T17:30:39.425Z,98.25
2022-09-17T17:33:08.816Z,100.00
2022-09-17T17:35:41.155Z,100.00
2022-09-17T17:38:10.245Z,100.00
2022-09-17T17:40:39.118Z,100.00
2022-09-17T17:43:08.236Z,100.00
2022-09-17T17:45:37.131Z,100.00
2022-09-17T17:48:06.803Z,100.00
2022-09-17T17:50:37.131Z,100.00
2022-09-17T17:53:06.179Z,100.00
2022-09-17T17:55:35.437Z,100.00
2022-09-17T17:58:04.659Z,100.00
2022-09-17T18:00:33.532Z,100.00
2022-09-17T18:03:02.680Z,100.00
2022-09-17T18:05:31.776Z,100.00
2022-09-17T18:08:01.221Z,100.00
2022-09-17T18:10:30.452Z,100.00
2022-09-17T18:12:59.519Z,100.00
2022-09-17T18:15:28.606Z,100.00
2022-09-17T18:17:57.725Z,100.00
2022-09-17T18:20:26.988Z,100.00
2022-09-17T18:22:56.595Z,100.00
2022-09-17T18:25:25.411Z,100.00
2022-09-17T18:27:54.705Z,100.00
2022-09-17T18:30:23.427Z,100.00
2022-09-17T18:32:53.962Z,100.00
2022-09-17T18:35:24.386Z,100.00
2022-09-17T18:37:53.490Z,100.00
2022-09-17T18:40:22.727Z,100.00
2022-09-17T18:42:51.865Z,100.00
2022-09-17T18:45:20.677Z,100.00
2022-09-17T18:47:49.633Z,100.00
2022-09-17T18:50:18.958Z,100.00
2022-09-17T18:52:48.021Z,100.00
2022-09-17T18:55:17.071Z,85.17
2022-09-17T18:57:46.204Z,76.08
2022-09-17T19:00:15.151Z,77.90
2022-09-17T19:02:44.127Z,78.11
2022-09-17T19:05:13.815Z,73.27
2022-09-17T19:07:53.870Z,80.41
2022-09-17T19:10:23.152Z,90.39
2022-09-17T19:12:51.968Z,100.00
2022-09-17T19:15:21.563Z,100.00
2022-09-17T19:17:50.520Z,100.00
2022-09-17T19:20:20.747Z,100.00
2022-09-17T19:22:51.340Z,100.00
2022-09-17T19:25:24.391Z,100.00
2022-09-17T19:27:56.917Z,97.73
2022-09-17T19:30:28.493Z,100.00
2022-09-17T19:32:59.242Z,88.46
2022-09-17T19:35:29.020Z,87.28
2022-09-17T19:38:00.987Z,80.39
2022-09-17T19:40:30.779Z,76.40
2022-09-17T19:43:00.174Z,74.65
2022-09-17T19:45:29.453Z,79.84
2022-09-17T19:48:02.689Z,83.42
2022-09-17T19:50:33.289Z,95.54
2022-09-17T19:53:02.216Z,100.00
2022-09-17T19:55:31.458Z,100.00
2022-09-17T19:58:05.052Z,100.00
2022-09-17T20:00:34.456Z,100.00
2022-09-17T20:03:05.419Z,100.00
2022-09-17T20:05:34.989Z,100.00
2022-09-17T20:08:05.933Z,100.00
2022-09-17T20:10:39.384Z,100.00
2022-09-17T20:13:08.344Z,100.00
2022-09-17T20:15:37.719Z,100.00
2022-09-17T20:18:06.851Z,100.00
2022-09-17T20:20:39.072Z,100.00
2022-09-17T20:23:08.379Z,100.00
2022-09-17T20:25:37.131Z,100.00
2022-09-17T20:28:06.149Z,100.00
2022-09-17T20:30:35.302Z,100.00
2022-09-17T20:33:04.275Z,100.00
2022-09-17T20:35:33.068Z,100.00
2022-09-17T20:40:53.003Z,100.00
2022-09-17T20:43:22.052Z,100.00
2022-09-17T20:45:56.603Z,99.56
2022-09-17T20:48:26.272Z,96.86
2022-09-17T20:51:11.984Z,98.50
2022-09-17T20:53:43.208Z,95.01
2022-09-17T20:56:14.739Z,94.06
2022-09-17T20:58:49.361Z,90.67
2022-09-17T21:01:24.218Z,92.46
2022-09-17T21:03:55.278Z,87.01
2022-09-17T21:06:26.683Z,88.51
2022-09-17T21:08:56.018Z,90.82
2022-09-17T21:11:25.800Z,92.04
2022-09-17T21:13:55.149Z,90.63
2022-09-17T21:16:24.216Z,92.28
2022-09-17T21:19:00.879Z,91.41
2022-09-17T21:21:31.403Z,100.00
2022-09-17T21:24:04.941Z,100.00
2022-09-17T21:26:35.407Z,100.00
2022-09-17T21:29:04.997Z,100.00
2022-09-17T21:31:37.930Z,100.00
2022-09-17T21:34:10.974Z,93.38
2022-09-17T21:36:42.062Z,97.30
2022-09-17T21:39:16.132Z,93.88
2022-09-17T21:41:46.420Z,85.62
2022-09-17T21:44:15.970Z,89.52
2022-09-17T21:46:44.790Z,89.93
2022-09-17T21:49:14.402Z,82.91
2022-09-17T21:51:44.517Z,81.82
2022-09-17T21:54:16.851Z,82.15
2022-09-17T21:56:47.104Z,78.72
2022-09-17T21:59:17.778Z,82.69
2022-09-17T22:01:51.569Z,87.82
2022-09-17T22:04:23.269Z,84.21
2022-09-17T22:06:52.309Z,85.92
2022-09-17T22:09:26.622Z,82.41
2022-09-17T22:11:56.000Z,81.21
2022-09-17T22:14:26.496Z,78.86
2022-09-17T22:16:58.297Z,82.88
2022-09-17T22:19:28.350Z,76.48
2022-09-17T22:21:57.698Z,78.46
2022-09-17T22:24:27.474Z,78.80
2022-09-17T22:26:58.401Z,79.42
2022-09-17T22:29:32.617Z,80.69
2022-09-17T22:32:01.699Z,80.36
2022-09-17T22:34:30.741Z,77.29
2022-09-17T22:37:01.160Z,81.72
2022-09-17T22:39:30.797Z,83.62
2022-09-17T22:41:59.631Z,82.16
2022-09-17T22:44:28.881Z,85.82
2022-09-17T22:46:57.820Z,84.74
2022-09-17T22:49:27.207Z,86.86
2022-09-17T22:51:56.129Z,87.29
2022-09-17T22:54:25.209Z,87.46
2022-09-17T22:56:54.134Z,85.71
2022-09-17T22:59:23.255Z,87.82
2022-09-17T23:01:52.092Z,87.45
2022-09-17T23:04:21.200Z,87.06
2022-09-17T23:06:50.058Z,87.50
2022-09-17T23:09:18.992Z,84.85
2022-09-17T23:11:47.935Z,89.88
2022-09-17T23:14:18.424Z,87.27
2022-09-17T23:16:49.382Z,85.80
2022-09-17T23:19:21.444Z,85.45
2022-09-17T23:21:50.508Z,85.24
2022-09-17T23:24:22.481Z,85.20
2022-09-17T23:26:51.990Z,85.12
2022-09-17T23:29:30.154Z,78.63
2022-09-17T23:31:59.367Z,84.34
2022-09-17T23:34:28.627Z,87.07
2022-09-17T23:37:53.424Z,83.97
2022-09-17T23:40:23.546Z,84.10
2022-09-17T23:42:52.439Z,85.41
2022-09-17T23:45:21.412Z,83.79
2022-09-17T23:47:50.600Z,83.92
2022-09-17T23:50:19.408Z,84.76
2022-09-17T23:53:07.495Z,85.10
2022-09-17T23:55:38.564Z,82.81
2022-09-17T23:58:08.938Z,80.32
